NCAR-RAP Real-Time Weather Data

Output produced by METARs form (17 September 2019  17:00 UTC)
found at http://weather.rap.ucar.edu/surface/
 
KDCA 171652Z 05009KT 10SM BKN039 BKN070 27/15 A3013 RMK AO2 SLP201 T02670150
KDCA 171552Z 05012KT 10SM SCT029 BKN034 BKN070 26/17 A3013 RMK AO2 SLP201 T02560172
KDCA 171452Z 05010KT 10SM SCT027 BKN035 BKN070 26/19 A3012 RMK AO2 SLP198 T02560189 53009
KDCA 171429Z 06011KT 10SM SCT022 BKN036 OVC070 24/19 A3011 RMK AO2 T02390194
KDCA 171352Z 06011KT 10SM BKN017 BKN027 OVC070 24/19 A3011 RMK AO2 SLP195 T02390194
KDCA 171252Z 04009KT 10SM BKN015 OVC050 23/19 A3009 RMK AO2 SLP188 T02280194
KDCA 171248Z 04010KT 10SM BKN015 OVC050 23/19 A3009 RMK AO2
KDCA 171152Z 03011KT 10SM BKN013 OVC055 23/20 A3007 RMK AO2 SLP181 T02330200 10244 20228 53020
KDCA 171119Z 05011KT 10SM BKN014 OVC055 23/20 A3005 RMK AO2 T02280200
KDCA 171052Z 04012KT 10SM FEW014 OVC055 23/20 A3004 RMK AO2 SLP171 T02280200
KDCA 170952Z 03012KT 10SM SCT016 BKN055 BKN090 23/19 A3003 RMK AO2 SLP167 T02330189
KDCA 170852Z 05012KT 10SM BKN060 OVC085 23/18 A3001 RMK AO2 SLP161 T02330183 56003
KDCA 170752Z 04008KT 10SM FEW075 SCT090 BKN120 BKN250 24/18 A3001 RMK AO2 SLP161 T02390178
KDCA 170652Z 05009KT 10SM FEW085 BKN120 OVC250 24/18 A3001 RMK AO2 SLP163 T02440183
KDCA 170552Z 04007KT 10SM BKN085 BKN250 24/19 A3002 RMK AO2 SLP164 T02440189 10278 20244 53004
KDCA 170452Z 06005KT 10SM BKN110 BKN250 25/18 A3001 RMK AO2 SLP160 T02500178 403330200
KDCA 170352Z 06009KT 10SM FEW085 SCT110 SCT250 26/17 A3001 RMK AO2 SLP161 T02560172
KDCA 170252Z 11006KT 10SM BKN085 BKN140 BKN250 27/17 A3000 RMK AO2 SLP159 T02670172 51013
KDCA 170052Z 08003KT 10SM FEW080 SCT090 BKN110 BKN250 27/18 A2998 RMK AO2 SLP151 T02670178
KDCA 162352Z 06009KT 10SM FEW075 BKN090 BKN250 28/20 A2996 RMK AO2 SLP146 T02780200 10333 20278 53004
KDCA 162252Z 02004KT 10SM FEW070 BKN110 BKN250 31/17 A2995 RMK AO2 SLP141 T03060167
KDCA 162152Z 01007KT 10SM FEW065 SCT100 BKN250 33/14 A2994 RMK AO2 SLP140 T03280139
KDCA 162052Z 07003KT 10SM FEW060 SCT095 BKN250 32/15 A2995 RMK AO2 SLP142 T03220150 56021
KDCA 161952Z 13004KT 10SM FEW055 SCT170 SCT250 32/16 A2996 RMK AO2 SLP146 T03170161